Time;durP1;ratioP1;P1;durP2;ratioP2;P2;SDS_P1;SDS_P2;PMS_P1;PMS_P2;Temp;Humidity;BMP_temperature;BMP_pressure;BME280_temperature;BME280_humidity;BME280_pressure;Samples;Min_cycle;Max_cycle;Signal;HPM_P1;HPM_P2
2022/01/25 00:10:01;;;;;;;;;;;;;;;-2.19;81.57;100357.81;5094821;28;20409;-68
2022/01/25 00:15:19;;;;;;;;;;;;;;;-2.13;81.35;100368.81;5094603;28;19931;-66
2022/01/25 00:26:05;;;;;;;;;;;;;;;-2.42;81.32;100388.59;5094674;28;20438;-67
2022/01/25 00:28:44;;;;;;;;;;;;;;;-2.39;81.56;100391.97;5094612;28;19924;-66
2022/01/25 00:31:14;;;;;;;;;;;;;;;-2.56;82.69;100403.13;5094290;28;19928;-68
2022/01/25 00:33:41;;;;;;;;;;;;;;;-2.66;83.39;100404.91;5094442;28;20640;-68
2022/01/25 00:36:09;;;;;;;;;;;;;;;-2.71;83.82;100404.09;5094654;28;19924;-68
2022/01/25 00:38:36;;;;;;;;;;;;;;;-2.54;83.11;100410.75;5094502;28;20001;-67
2022/01/25 00:41:03;;;;;;;;;;;;;;;-2.66;83.46;100411.69;5094516;28;20412;-68
2022/01/25 00:43:31;;;;;;;;;;;;;;;-2.66;83.37;100416.78;5094215;28;19947;-68
2022/01/25 00:46:01;;;;;;;;;;;;;;;-2.73;83.73;100415.13;5094190;28;20321;-68
2022/01/25 00:48:42;;;;;;;;;;;;;;;-2.78;83.81;100422.78;5094152;28;20023;-68
2022/01/25 00:51:20;;;;;;;;;;;;;;;-2.83;83.65;100423.69;5094084;28;20073;-68
2022/01/25 00:53:55;;;;;;;;;;;;;;;-2.96;84.27;100423.72;5094568;28;20014;-68
2022/01/25 00:56:22;;;;;;;;;;;;;;;-3.08;84.54;100434.84;5093933;28;19924;-64
2022/01/25 00:58:49;;;;;;;;;;;;;;;-3.13;84.47;100434.00;5094050;28;20427;-67
2022/01/25 01:01:16;;;;;;;;;;;;;;;-3.18;84.50;100432.34;5094071;28;20385;-68
2022/01/25 01:03:44;;;;;;;;;;;;;;;-3.26;84.75;100432.38;5093906;28;19981;-68
2022/01/25 01:06:11;;;;;;;;;;;;;;;-3.28;85.10;100437.44;5093821;28;19924;-68
2022/01/25 01:08:37;;;;;;;;;;;;;;;-3.33;84.86;100444.25;5093445;28;20386;-68
2022/01/25 01:11:08;;;;;;;;;;;;;;;-3.25;84.34;100451.03;5093380;28;19935;-67
2022/01/25 01:13:55;;;;;;;;;;;;;;;-3.38;84.41;100451.06;5093524;28;19924;-66
2022/01/25 01:16:45;;;;;;;;;;;;;;;-3.41;84.55;100451.06;5093579;28;20023;-66
2022/01/25 01:30:19;;;;;;;;;;;;;;;-3.21;81.47;100488.31;5093447;28;20025;-65
2022/01/25 01:33:14;;;;;;;;;;;;;;;-3.15;80.95;100486.59;5093372;28;19924;-66
2022/01/25 01:36:19;;;;;;;;;;;;;;;-3.28;81.63;100488.34;5093084;28;19924;-68
2022/01/25 01:39:11;;;;;;;;;;;;;;;-3.35;82.11;100483.28;5093095;28;19925;-67
2022/01/25 01:41:51;;;;;;;;;;;;;;;-3.35;81.55;100486.66;5093689;28;19972;-68
2022/01/25 01:44:22;;;;;;;;;;;;;;;-3.38;81.80;100496.00;5093111;28;19924;-68
2022/01/25 01:47:02;;;;;;;;;;;;;;;-3.39;81.15;100514.66;5093116;28;19982;-67
2022/01/25 01:49:30;;;;;;;;;;;;;;;-3.41;80.08;100506.19;5093304;28;19924;-67
2022/01/25 01:51:58;;;;;;;;;;;;;;;-3.42;80.19;100504.47;5092761;28;19928;-65
2022/01/25 01:54:25;;;;;;;;;;;;;;;-3.37;79.61;100506.16;5092864;28;20431;-67
2022/01/25 01:56:52;;;;;;;;;;;;;;;-3.45;80.13;100519.75;5092919;28;19977;-68
2022/01/25 01:59:19;;;;;;;;;;;;;;;-3.45;79.97;100530.78;5092837;28;19985;-67
2022/01/25 02:01:47;;;;;;;;;;;;;;;-3.59;81.02;100528.25;5093015;28;19964;-67
2022/01/25 02:04:15;;;;;;;;;;;;;;;-3.64;80.76;100534.19;5092693;28;20332;-68
2022/01/25 02:06:42;;;;;;;;;;;;;;;-3.64;81.34;100546.91;5092608;28;19969;-68
2022/01/25 02:09:10;;;;;;;;;;;;;;;-3.67;80.95;100551.97;5092847;28;19957;-68
2022/01/25 02:11:37;;;;;;;;;;;;;;;-3.64;80.33;100549.44;5092374;28;20324;-68
2022/01/25 02:14:08;;;;;;;;;;;;;;;-3.66;81.33;100556.22;5093019;28;19928;-67
2022/01/25 02:16:43;;;;;;;;;;;;;;;-3.61;81.01;100554.53;5093011;28;19924;-68
2022/01/25 02:24:39;;;;;;;;;;;;;;;-3.78;80.78;100572.31;5082206;28;19924;-67
2022/01/25 02:27:06;;;;;;;;;;;;;;;-3.72;80.27;100582.50;5092674;28;19924;-68
2022/01/25 02:29:33;;;;;;;;;;;;;;;-3.83;80.02;100582.47;5092535;28;19928;-68
2022/01/25 02:32:00;;;;;;;;;;;;;;;-3.99;80.66;100578.22;5092255;28;19955;-66
2022/01/25 02:34:27;;;;;;;;;;;;;;;-3.89;80.67;100579.94;5092526;28;19963;-68
2022/01/25 02:36:58;;;;;;;;;;;;;;;-3.93;80.61;100585.88;5092595;28;19926;-67
2022/01/25 02:39:25;;;;;;;;;;;;;;;-3.96;80.28;100596.03;5092717;28;20387;-68
2022/01/25 02:41:52;;;;;;;;;;;;;;;-3.89;79.61;100597.72;5092951;28;19927;-68
2022/01/25 02:44:24;;;;;;;;;;;;;;;-3.87;79.37;100605.38;5092389;28;19928;-67
2022/01/25 02:49:35;;;;;;;;;;;;;;;-3.94;79.17;100610.44;5092543;28;20012;-68
2022/01/25 02:52:04;;;;;;;;;;;;;;;-3.86;79.56;100624.84;5092292;28;19924;-68
2022/01/25 02:54:31;;;;;;;;;;;;;;;-4.02;79.96;100627.34;5092533;28;19924;-67
2022/01/25 02:56:58;;;;;;;;;;;;;;;-4.07;79.41;100630.75;5092488;28;20301;-67
2022/01/25 02:59:26;;;;;;;;;;;;;;;-3.99;79.66;100629.06;5092300;28;19928;-68
2022/01/25 03:01:53;;;;;;;;;;;;;;;-4.10;79.36;100628.19;5092132;28;20018;-68
2022/01/25 03:04:21;;;;;;;;;;;;;;;-4.16;78.86;100619.72;5092298;28;19928;-68
2022/01/25 03:06:48;;;;;;;;;;;;;;;-4.14;79.55;100622.22;5092135;28;19931;-66
2022/01/25 03:09:16;;;;;;;;;;;;;;;-4.18;79.21;100630.72;5092335;28;20026;-67
2022/01/25 03:11:45;;;;;;;;;;;;;;;-4.22;79.90;100622.22;5091974;28;19924;-66
2022/01/25 03:14:12;;;;;;;;;;;;;;;-4.33;80.25;100633.19;5091982;28;20305;-67
2022/01/25 03:16:42;;;;;;;;;;;;;;;-4.31;80.07;100645.06;5092275;28;19975;-67
2022/01/25 03:21:51;;;;;;;;;;;;;;;-4.44;80.16;100650.94;5091573;28;19985;-68
2022/01/25 03:24:19;;;;;;;;;;;;;;;-4.50;80.43;100666.97;5092002;28;20293;-68
2022/01/25 03:26:46;;;;;;;;;;;;;;;-4.56;81.20;100650.88;5091917;28;19931;-68
2022/01/25 03:29:13;;;;;;;;;;;;;;;-4.49;80.95;100660.22;5092191;28;19928;-67
2022/01/25 03:31:40;;;;;;;;;;;;;;;-4.62;81.90;100672.00;5093287;28;19924;-67
2022/01/25 03:34:07;;;;;;;;;;;;;;;-4.63;81.99;100668.59;5095892;28;20026;-66
2022/01/25 03:36:34;;;;;;;;;;;;;;;-4.58;81.61;100672.84;5095552;28;19924;-68
2022/01/25 03:39:00;;;;;;;;;;;;;;;-4.60;81.21;100675.38;5095526;28;19935;-67
2022/01/25 03:41:29;;;;;;;;;;;;;;;-4.71;81.65;100682.94;5096311;28;19924;-67
2022/01/25 03:43:57;;;;;;;;;;;;;;;-4.70;82.16;100692.28;5095523;28;19923;-68
2022/01/25 03:46:31;;;;;;;;;;;;;;;-4.64;81.54;100691.44;5095324;28;19951;-66
2022/01/25 03:51:51;;;;;;;;;;;;;;;-4.76;81.98;100709.97;5058611;28;20282;-67
2022/01/25 03:54:18;;;;;;;;;;;;;;;-4.82;81.93;100709.94;5095379;28;19931;-67
2022/01/25 03:56:46;;;;;;;;;;;;;;;-4.87;81.67;100711.59;5095252;28;19931;-65
2022/01/25 03:59:13;;;;;;;;;;;;;;;-4.84;81.05;100716.69;5095148;28;19924;-65
2022/01/25 04:01:39;;;;;;;;;;;;;;;-4.98;82.68;100715.72;5095168;28;20297;-66
2022/01/25 04:04:09;;;;;;;;;;;;;;;-4.96;82.07;100722.50;5095048;28;19928;-67
2022/01/25 04:06:37;;;;;;;;;;;;;;;-5.05;82.31;100725.84;5094975;28;20271;-64
2022/01/25 04:09:05;;;;;;;;;;;;;;;-5.09;82.15;100720.72;5095057;28;19963;-63
2022/01/25 04:11:32;;;;;;;;;;;;;;;-4.96;81.04;100721.66;5094661;28;19951;-67
2022/01/25 04:14:00;;;;;;;;;;;;;;;-4.94;81.25;100723.38;5095011;28;19924;-67
2022/01/25 04:16:31;;;;;;;;;;;;;;;-5.08;82.63;100723.28;5094865;28;19924;-66
2022/01/25 04:19:04;;;;;;;;;;;;;;;-5.18;82.53;100731.66;5094679;28;19979;-66
2022/01/25 04:27:07;;;;;;;;;;;;;;;-5.25;83.12;100751.03;5094864;28;19932;-62
2022/01/25 04:29:35;;;;;;;;;;;;;;;-5.28;82.56;100757.78;5094568;28;19924;-68
2022/01/25 04:32:05;;;;;;;;;;;;;;;-5.24;82.50;100767.13;5094477;28;19928;-68
2022/01/25 04:34:42;;;;;;;;;;;;;;;-5.25;82.66;100766.25;5094664;28;19931;-67
2022/01/25 04:53:40;;;;;;;;;;;;;;;-5.52;83.30;100779.50;5080897;28;19977;-67
2022/01/25 04:56:13;;;;;;;;;;;;;;;-5.63;84.42;100786.13;5093886;28;20019;-63
2022/01/25 04:58:46;;;;;;;;;;;;;;;-5.48;83.65;100793.91;5094122;28;19931;-67
2022/01/25 05:01:14;;;;;;;;;;;;;;;-5.58;83.55;100801.41;5094253;28;19924;-66
2022/01/25 05:03:54;;;;;;;;;;;;;;;-5.69;83.65;100808.88;5093340;28;21261;-67
2022/01/25 05:06:21;;;;;;;;;;;;;;;-5.70;84.39;100809.72;5093995;28;19931;-66
2022/01/25 05:08:51;;;;;;;;;;;;;;;-5.65;83.40;100808.09;5093668;28;20436;-66
2022/01/25 05:11:26;;;;;;;;;;;;;;;-5.64;83.50;100811.47;5093246;28;19924;-67
2022/01/25 05:13:59;;;;;;;;;;;;;;;-5.70;83.80;100808.03;5094010;28;19924;-66
2022/01/25 05:16:30;;;;;;;;;;;;;;;-5.71;84.77;100815.59;5093688;28;19924;-67
2022/01/25 05:19:08;;;;;;;;;;;;;;;-5.79;84.83;100812.13;5093693;28;19924;-68
2022/01/25 05:24:19;;;;;;;;;;;;;;;-5.84;85.33;100821.34;5093627;28;19931;-67
2022/01/25 05:26:46;;;;;;;;;;;;;;;-5.98;86.20;100827.13;5093677;28;19932;-68
2022/01/25 05:29:13;;;;;;;;;;;;;;;-6.05;86.32;100835.47;5093557;28;19931;-67
2022/01/25 05:31:40;;;;;;;;;;;;;;;-5.80;85.17;100835.78;5093104;28;19935;-66
2022/01/25 05:34:08;;;;;;;;;;;;;;;-5.80;85.45;100831.56;5093463;28;19939;-66
2022/01/25 05:36:35;;;;;;;;;;;;;;;-5.76;85.22;100833.28;5093316;28;19924;-64
2022/01/25 05:39:07;;;;;;;;;;;;;;;-5.74;85.41;100846.84;5092963;28;20286;-65
2022/01/25 05:41:33;;;;;;;;;;;;;;;-5.87;85.52;100842.44;5093409;28;19969;-62
2022/01/25 05:46:52;;;;;;;;;;;;;;;-5.69;84.36;100842.66;5082312;28;19931;-64
2022/01/25 05:49:18;;;;;;;;;;;;;;;-5.75;85.29;100841.75;5092977;28;19925;-64
2022/01/25 05:51:45;;;;;;;;;;;;;;;-5.78;85.21;100849.31;5092876;28;19925;-63
2022/01/25 05:54:11;;;;;;;;;;;;;;;-5.72;84.85;100855.31;5092748;28;19924;-64
2022/01/25 05:56:38;;;;;;;;;;;;;;;-5.73;84.64;100860.34;5092348;28;19931;-62
2022/01/25 05:59:04;;;;;;;;;;;;;;;-5.84;84.96;100872.88;5092957;28;19931;-63
2022/01/25 06:01:32;;;;;;;;;;;;;;;-5.77;85.16;100876.38;5092824;28;19928;-64
2022/01/25 06:03:59;;;;;;;;;;;;;;;-5.89;85.39;100874.50;5092854;28;20022;-65
2022/01/25 06:06:27;;;;;;;;;;;;;;;-5.94;86.20;100877.00;5092883;28;19931;-68
2022/01/25 06:08:54;;;;;;;;;;;;;;;-6.03;86.23;100887.00;5092758;28;19924;-63
2022/01/25 06:11:21;;;;;;;;;;;;;;;-5.97;85.98;100889.63;5092468;28;19924;-66
2022/01/25 06:13:48;;;;;;;;;;;;;;;-5.97;85.23;100888.78;5092842;28;19924;-65
2022/01/25 06:16:14;;;;;;;;;;;;;;;-5.96;85.89;100891.34;5092781;28;19924;-64
2022/01/25 06:18:41;;;;;;;;;;;;;;;-6.15;86.03;100896.97;5092620;28;20294;-62
2022/01/25 06:21:09;;;;;;;;;;;;;;;-6.20;87.03;100901.09;5092769;28;19928;-64
2022/01/25 06:23:35;;;;;;;;;;;;;;;-6.21;86.82;100904.47;5092665;28;19938;-66
2022/01/25 06:26:02;;;;;;;;;;;;;;;-6.01;85.65;100908.16;5066535;28;19929;-63
2022/01/25 06:28:28;;;;;;;;;;;;;;;-6.11;86.00;100905.44;5070771;28;19931;-62
2022/01/25 06:30:55;;;;;;;;;;;;;;;-6.22;86.35;100911.19;5071392;28;19931;-63
2022/01/25 06:33:22;;;;;;;;;;;;;;;-6.38;87.45;100924.44;5070647;28;19932;-63
2022/01/25 06:35:49;;;;;;;;;;;;;;;-6.43;88.12;100924.34;5070779;28;19924;-63
2022/01/25 06:38:17;;;;;;;;;;;;;;;-6.36;87.09;100917.72;5071224;28;19929;-66
2022/01/25 06:40:43;;;;;;;;;;;;;;;-6.48;88.11;100922.59;5071370;28;19931;-66
2022/01/25 06:43:10;;;;;;;;;;;;;;;-6.51;88.43;100914.94;5059072;28;19936;-62
2022/01/25 06:45:40;;;;;;;;;;;;;;;-6.58;88.75;100914.84;5051547;28;19948;-68
2022/01/25 06:48:06;;;;;;;;;;;;;;;-6.55;89.11;100911.50;5051415;28;19925;-68
2022/01/25 06:50:33;;;;;;;;;;;;;;;-6.53;88.99;100919.97;5058927;28;19928;-63
2022/01/25 06:53:00;;;;;;;;;;;;;;;-6.40;88.19;100933.69;5070742;28;19924;-66
2022/01/25 06:55:28;;;;;;;;;;;;;;;-6.44;88.55;100926.88;5056619;28;19967;-63
2022/01/25 06:57:55;;;;;;;;;;;;;;;-6.38;87.96;100932.88;5070911;28;19924;-64
2022/01/25 07:00:23;;;;;;;;;;;;;;;-6.39;87.62;100937.94;5070735;28;19932;-63
2022/01/25 07:02:50;;;;;;;;;;;;;;;-6.38;87.26;100943.00;5070594;28;19924;-62
2022/01/25 07:05:16;;;;;;;;;;;;;;;-6.38;87.66;100949.75;5071122;28;19932;-62
2022/01/25 07:07:44;;;;;;;;;;;;;;;-6.41;87.70;100954.78;5075179;28;19936;-63
2022/01/25 07:10:10;;;;;;;;;;;;;;;-6.32;87.28;100956.59;5077090;28;20332;-63
2022/01/25 07:12:38;;;;;;;;;;;;;;;-6.23;86.34;100960.16;5094500;28;19924;-64
2022/01/25 07:15:05;;;;;;;;;;;;;;;-6.20;87.57;100962.72;5080647;28;20299;-62
2022/01/25 07:17:32;;;;;;;;;;;;;;;-6.21;86.82;100965.25;5074624;28;20402;-63
2022/01/25 07:19:59;;;;;;;;;;;;;;;-6.32;87.19;100970.13;5073829;28;19925;-62
2022/01/25 07:22:25;;;;;;;;;;;;;;;-6.44;87.73;100967.38;5074544;28;19932;-67
2022/01/25 07:24:52;;;;;;;;;;;;;;;-6.19;86.85;100968.63;5075024;28;19924;-63
2022/01/25 07:27:18;;;;;;;;;;;;;;;-6.25;87.33;100973.63;5085686;28;20279;-63
2022/01/25 07:29:46;;;;;;;;;;;;;;;-6.25;87.22;100976.16;5082552;28;19932;-68
2022/01/25 07:32:13;;;;;;;;;;;;;;;-6.31;87.59;100981.13;5080095;28;20389;-68
2022/01/25 07:34:39;;;;;;;;;;;;;;;-6.21;86.99;100981.31;5095429;28;20323;-65
2022/01/25 07:37:06;;;;;;;;;;;;;;;-6.43;88.33;100980.06;5093582;28;19935;-63
2022/01/25 07:39:32;;;;;;;;;;;;;;;-6.41;87.94;100983.47;5085505;28;19924;-62
2022/01/25 07:41:59;;;;;;;;;;;;;;;-6.48;88.57;100988.41;5075136;28;19932;-62
2022/01/25 07:44:29;;;;;;;;;;;;;;;-6.52;89.72;100992.56;5074810;28;19924;-64
2022/01/25 07:46:58;;;;;;;;;;;;;;;-6.57;88.40;100986.56;5072846;28;19925;-63
2022/01/25 07:49:25;;;;;;;;;;;;;;;-6.68;88.99;100999.03;5073930;28;19929;-64
2022/01/25 07:51:51;;;;;;;;;;;;;;;-6.27;87.34;101006.50;5073683;28;20374;-64
2022/01/25 07:54:18;;;;;;;;;;;;;;;-6.33;86.80;101001.34;5073571;28;20279;-67
2022/01/25 07:56:45;;;;;;;;;;;;;;;-6.59;87.86;101006.78;5073556;28;19932;-68
2022/01/25 07:59:11;;;;;;;;;;;;;;;-6.53;87.88;101003.50;5091842;28;19924;-63
2022/01/25 08:01:38;;;;;;;;;;;;;;;-6.38;86.79;101008.84;5094900;28;19935;-65
2022/01/25 08:04:06;;;;;;;;;;;;;;;-6.20;86.50;101018.44;5088117;28;20382;-64
2022/01/25 08:06:32;;;;;;;;;;;;;;;-6.22;85.77;101015.03;5073194;28;19932;-68
2022/01/25 08:09:00;;;;;;;;;;;;;;;-6.30;85.99;101028.41;5080089;28;19924;-67
2022/01/25 08:11:26;;;;;;;;;;;;;;;-6.54;86.72;101027.13;5094501;28;19931;-62
2022/01/25 08:14:00;;;;;;;;;;;;;;;-6.61;87.39;101032.88;5092742;28;19924;-68
2022/01/25 08:16:27;;;;;;;;;;;;;;;-6.62;87.27;101028.66;5093923;28;20371;-68
2022/01/25 08:18:53;;;;;;;;;;;;;;;-6.47;87.36;101038.19;5087096;28;19925;-63
2022/01/25 08:21:21;;;;;;;;;;;;;;;-6.59;88.19;101042.22;5073115;28;19931;-64
2022/01/25 08:23:48;;;;;;;;;;;;;;;-6.53;88.39;101043.16;5073267;28;19939;-62
2022/01/25 08:26:14;;;;;;;;;;;;;;;-6.64;89.29;101053.06;5073068;28;19931;-65
2022/01/25 08:28:41;;;;;;;;;;;;;;;-6.54;88.87;101046.53;5073653;28;20263;-64
2022/01/25 08:31:07;;;;;;;;;;;;;;;-6.42;88.48;101049.25;5083383;28;20306;-63
2022/01/25 08:33:34;;;;;;;;;;;;;;;-6.38;88.96;101036.69;5092421;28;20366;-62
2022/01/25 08:36:01;;;;;;;;;;;;;;;-6.48;89.53;101039.03;5093881;28;20015;-65
2022/01/25 08:38:29;;;;;;;;;;;;;;;-6.52;89.48;101049.91;5093910;28;19955;-62
2022/01/25 08:40:55;;;;;;;;;;;;;;;-6.41;88.90;101045.94;5096565;22;20559;-69
2022/01/25 08:43:22;;;;;;;;;;;;;;;-6.39;89.15;101060.31;5072626;28;19925;-69
2022/01/25 08:45:48;;;;;;;;;;;;;;;-6.37;89.00;101062.88;5073128;28;19947;-69
2022/01/25 08:48:15;;;;;;;;;;;;;;;-6.30;88.48;101069.75;5073424;28;19939;-69
2022/01/25 08:50:41;;;;;;;;;;;;;;;-6.16;88.13;101073.41;5072277;28;19925;-67
2022/01/25 08:53:09;;;;;;;;;;;;;;;-6.14;88.03;101079.38;5072928;28;19947;-68
2022/01/25 08:55:37;;;;;;;;;;;;;;;-6.00;87.75;101086.38;5072293;28;19931;-69
2022/01/25 08:58:03;;;;;;;;;;;;;;;-5.92;87.02;101082.25;5072083;28;19924;-69
2022/01/25 09:00:30;;;;;;;;;;;;;;;-5.96;86.87;101081.38;5072349;28;19924;-69
2022/01/25 09:02:57;;;;;;;;;;;;;;;-5.91;87.71;101077.22;5072341;28;19925;-69
2022/01/25 09:05:23;;;;;;;;;;;;;;;-5.85;87.32;101085.75;5073687;28;19931;-69
2022/01/25 09:07:50;;;;;;;;;;;;;;;-5.85;87.90;101083.22;5085318;28;19925;-70
2022/01/25 09:10:16;;;;;;;;;;;;;;;-5.91;87.64;101089.88;5092693;28;19978;-69
2022/01/25 09:12:44;;;;;;;;;;;;;;;-5.81;87.87;101085.81;5092017;28;19928;-69
2022/01/25 09:15:11;;;;;;;;;;;;;;;-5.93;87.64;101089.00;5093362;28;20275;-68
2022/01/25 09:17:38;;;;;;;;;;;;;;;-5.67;86.45;101088.59;5079511;28;19933;-68
2022/01/25 09:20:05;;;;;;;;;;;;;;;-5.44;86.25;101088.97;5072328;28;19924;-69
2022/01/25 09:22:31;;;;;;;;;;;;;;;-5.49;85.73;101090.56;5072299;28;19932;-69
2022/01/25 09:24:58;;;;;;;;;;;;;;;-5.38;85.73;101088.19;5077415;28;19932;-70
2022/01/25 09:27:24;;;;;;;;;;;;;;;-5.55;85.88;101086.28;5092233;28;19931;-69
2022/01/25 09:29:52;;;;;;;;;;;;;;;-5.77;87.10;101076.59;5091802;28;19931;-69
2022/01/25 09:32:19;;;;;;;;;;;;;;;-5.75;87.06;101083.41;5092105;28;20322;-69
2022/01/25 09:34:46;;;;;;;;;;;;;;;-5.83;86.65;101096.75;5084488;28;19971;-68
2022/01/25 09:37:13;;;;;;;;;;;;;;;-5.64;86.10;101097.94;5072750;28;20333;-69
2022/01/25 09:39:40;;;;;;;;;;;;;;;-5.64;86.94;101103.00;5092298;28;19931;-69
2022/01/25 09:42:09;;;;;;;;;;;;;;;-5.69;86.28;101108.00;5093080;28;19928;-69
2022/01/25 09:44:36;;;;;;;;;;;;;;;-5.71;86.63;101109.63;5090651;28;19993;-69
2022/01/25 09:47:04;;;;;;;;;;;;;;;-5.78;87.43;101102.75;5071247;28;19924;-69
2022/01/25 09:49:31;;;;;;;;;;;;;;;-5.73;86.85;101102.03;5071841;28;20290;-70
2022/01/25 09:52:00;;;;;;;;;;;;;;;-5.68;86.54;101109.69;5071697;28;19962;-69
2022/01/25 09:54:27;;;;;;;;;;;;;;;-5.58;86.75;101111.53;5081056;28;19932;-70
2022/01/25 09:56:53;;;;;;;;;;;;;;;-5.67;86.98;101110.56;5091501;28;19928;-70
2022/01/25 09:59:20;;;;;;;;;;;;;;;-5.68;87.25;101109.69;5092575;28;19932;-69
2022/01/25 10:01:46;;;;;;;;;;;;;;;-5.62;87.20;101109.81;5090109;28;19924;-69
2022/01/25 10:04:29;;;;;;;;;;;;;;;-5.26;85.45;101106.16;5090862;28;19947;-69
2022/01/25 10:06:56;;;;;;;;;;;;;;;-5.21;84.56;101108.72;5091196;28;20030;-69
2022/01/25 10:09:24;;;;;;;;;;;;;;;-5.38;85.77;101113.56;5092661;28;19924;-70
2022/01/25 10:11:51;;;;;;;;;;;;;;;-5.49;85.85;101111.72;5090719;28;19924;-70
2022/01/25 10:14:18;;;;;;;;;;;;;;;-5.49;85.45;101110.88;5082894;28;19931;-69
2022/01/25 10:16:45;;;;;;;;;;;;;;;-5.30;85.44;101112.00;5071435;28;19982;-69
2022/01/25 10:19:13;;;;;;;;;;;;;;;-5.39;84.85;101112.72;5071468;28;19929;-70
2022/01/25 10:21:42;;;;;;;;;;;;;;;-5.42;85.45;101111.78;5070670;28;20378;-69
2022/01/25 10:24:09;;;;;;;;;;;;;;;-5.35;85.34;101111.06;5071542;28;19925;-69
2022/01/25 10:26:39;;;;;;;;;;;;;;;-5.23;85.06;101111.28;5092158;28;19924;-69
2022/01/25 10:29:05;;;;;;;;;;;;;;;-5.13;84.40;101117.34;5089506;28;19930;-70
2022/01/25 10:31:37;;;;;;;;;;;;;;;-5.18;84.64;101118.97;5090916;28;19931;-69
2022/01/25 10:34:05;;;;;;;;;;;;;;;-4.63;82.96;101110.41;5091334;28;19931;-71
2022/01/25 10:36:31;;;;;;;;;;;;;;;-4.41;81.61;101109.00;5092594;28;20271;-69
2022/01/25 10:38:59;;;;;;;;;;;;;;;-4.72;81.95;101112.00;5067730;28;19928;-70
2022/01/25 10:41:27;;;;;;;;;;;;;;;-4.77;83.00;101121.25;5020128;22;2053286;-65
2022/01/25 10:43:55;;;;;;;;;;;;;;;-4.95;83.38;101120.13;5095024;28;19931;-65
2022/01/25 10:46:24;;;;;;;;;;;;;;;-4.78;82.81;101119.50;5095816;28;19932;-65
2022/01/25 10:48:53;;;;;;;;;;;;;;;-4.86;82.72;101115.19;5095075;28;19924;-68
2022/01/25 10:51:21;;;;;;;;;;;;;;;-4.63;82.08;101122.25;5095340;28;19924;-67
2022/01/25 10:53:56;;;;;;;;;;;;;;;-4.47;81.24;101125.84;5095993;28;19954;-67
2022/01/25 10:56:25;;;;;;;;;;;;;;;-4.47;81.54;101125.84;5094899;28;20248;-67
2022/01/25 10:58:52;;;;;;;;;;;;;;;-4.66;81.57;101128.16;5094520;28;19924;-68
2022/01/25 11:01:30;;;;;;;;;;;;;;;-4.76;82.80;101126.31;5094199;28;19924;-68
2022/01/25 11:04:04;;;;;;;;;;;;;;;-4.90;83.41;101115.13;5095846;28;19924;-69
2022/01/25 11:06:31;;;;;;;;;;;;;;;-4.91;84.12;101116.78;5093975;28;19924;-67
2022/01/25 11:09:01;;;;;;;;;;;;;;;-5.04;84.31;101123.38;5095077;28;20394;-67
2022/01/25 11:11:32;;;;;;;;;;;;;;;-4.93;83.87;101120.16;5095299;28;19967;-65
2022/01/25 11:14:50;;;;;;;;;;;;;;;-4.78;83.54;101122.06;5094845;28;19994;-67
2022/01/25 11:16:47;;;;;;;;;;;;;;;-4.31;82.40;101122.66;5088669;28;20010;-63
2022/01/25 11:19:14;;;;;;;;;;;;;;;-4.35;81.57;101120.91;5095201;28;19935;-65
2022/01/25 11:21:43;;;;;;;;;;;;;;;-4.49;82.62;101127.53;5095532;28;19931;-64
2022/01/25 11:24:10;;;;;;;;;;;;;;;-4.57;83.35;101136.72;5093869;28;19931;-66
2022/01/25 11:26:38;;;;;;;;;;;;;;;-4.68;82.99;101137.44;5094801;28;19947;-68
2022/01/25 11:29:04;;;;;;;;;;;;;;;-4.45;81.86;101136.88;5094520;28;20428;-67
2022/01/25 11:31:31;;;;;;;;;;;;;;;-4.40;82.15;101138.63;5094795;28;19931;-64
2022/01/25 11:33:59;;;;;;;;;;;;;;;-4.50;82.23;101139.34;5093953;28;19924;-63
2022/01/25 11:36:25;;;;;;;;;;;;;;;-4.43;81.62;101143.69;5094212;28;19931;-67
2022/01/25 11:38:53;;;;;;;;;;;;;;;-4.57;81.92;101135.06;5094974;28;19928;-67
2022/01/25 11:41:21;;;;;;;;;;;;;;;-4.71;82.78;101129.78;5094776;28;19928;-64
2022/01/25 11:44:06;;;;;;;;;;;;;;;-4.76;82.59;101133.09;5093806;28;19924;-67
2022/01/25 11:46:32;;;;;;;;;;;;;;;-4.67;83.50;101125.59;5081114;28;19924;-62
2022/01/25 11:49:01;;;;;;;;;;;;;;;-4.46;82.17;101130.94;5095464;28;20294;-62
2022/01/25 11:51:27;;;;;;;;;;;;;;;-3.75;80.06;101135.13;5093037;28;19931;-64
2022/01/25 11:53:54;;;;;;;;;;;;;;;-3.56;78.80;101137.84;5093911;28;19924;-62
2022/01/25 11:56:21;;;;;;;;;;;;;;;-3.81;79.12;101129.13;5093041;28;19928;-68
2022/01/25 11:58:54;;;;;;;;;;;;;;;-4.04;79.83;101128.88;5094083;28;19924;-62
2022/01/25 12:01:23;;;;;;;;;;;;;;;-4.44;80.79;101134.38;5093316;28;19937;-65
2022/01/25 12:03:51;;;;;;;;;;;;;;;-4.65;82.69;101136.59;5094316;28;19969;-63
2022/01/25 12:06:21;;;;;;;;;;;;;;;-4.72;83.02;101124.69;5094212;28;20386;-63
2022/01/25 12:09:04;;;;;;;;;;;;;;;-4.94;84.00;101114.22;5093339;28;20297;-64
2022/01/25 12:11:37;;;;;;;;;;;;;;;-5.11;85.03;101124.16;5092603;28;20003;-63
2022/01/25 12:14:16;;;;;;;;;;;;;;;-5.15;85.24;101111.38;5094090;28;19932;-63
2022/01/25 12:16:45;;;;;;;;;;;;;;;-5.23;84.93;101105.34;5094200;28;19970;-63
2022/01/25 12:19:13;;;;;;;;;;;;;;;-4.90;83.36;101103.28;5092930;28;20118;-63
2022/01/25 12:21:56;;;;;;;;;;;;;;;-4.93;83.25;101107.44;5093772;28;19931;-63
2022/01/25 12:24:26;;;;;;;;;;;;;;;-5.12;83.30;101122.41;5093386;28;20294;-64
2022/01/25 12:27:01;;;;;;;;;;;;;;;-5.35;84.44;101123.75;5092930;28;19986;-61
2022/01/25 12:29:35;;;;;;;;;;;;;;;-5.32;84.86;101127.22;5091874;28;19986;-64
2022/01/25 12:32:17;;;;;;;;;;;;;;;-5.13;84.17;101133.41;5093861;28;19931;-64
2022/01/25 12:35:07;;;;;;;;;;;;;;;-4.62;82.33;101127.38;5093754;28;20662;-63
2022/01/25 12:37:54;;;;;;;;;;;;;;;-4.33;80.08;101116.72;5092794;28;19935;-67
2022/01/25 12:43:07;;;;;;;;;;;;;;;-4.22;79.61;101120.22;5071543;28;19971;-68
2022/01/25 12:45:37;;;;;;;;;;;;;;;-4.57;81.07;101122.34;5071206;28;19929;-67
2022/01/25 12:48:07;;;;;;;;;;;;;;;-4.90;81.71;101122.75;5052232;28;19932;-67
2022/01/25 12:50:35;;;;;;;;;;;;;;;-5.11;82.73;101131.75;5052973;28;19955;-68
2022/01/25 12:53:02;;;;;;;;;;;;;;;-5.29;84.51;101129.78;5072796;28;19936;-68
2022/01/25 12:55:31;;;;;;;;;;;;;;;-5.39;84.91;101133.00;5072364;28;19931;-67
2022/01/25 12:57:58;;;;;;;;;;;;;;;-5.38;84.86;101133.84;5088455;28;20386;-68
2022/01/25 13:00:28;;;;;;;;;;;;;;;-5.50;85.12;101144.63;5093307;28;19935;-68
2022/01/25 13:03:10;;;;;;;;;;;;;;;-5.60;85.37;101141.13;5092073;28;19931;-68
2022/01/25 13:05:40;;;;;;;;;;;;;;;-5.61;85.86;101138.53;5079926;28;19931;-68
2022/01/25 13:08:15;;;;;;;;;;;;;;;-5.77;85.44;101140.81;5092736;28;19924;-69
2022/01/25 13:10:41;;;;;;;;;;;;;;;-5.75;86.19;101143.38;5092352;28;19931;-69
2022/01/25 13:13:21;;;;;;;;;;;;;;;-5.77;86.42;101132.34;5084084;28;20287;-69
2022/01/25 13:15:56;;;;;;;;;;;;;;;-5.85;86.44;101128.84;5092477;28;20404;-69
2022/01/25 13:18:25;;;;;;;;;;;;;;;-5.92;86.57;101132.94;5072371;28;20375;-69
2022/01/25 13:20:59;;;;;;;;;;;;;;;-5.99;86.69;101121.00;5081008;28;20023;-68
2022/01/25 13:23:28;;;;;;;;;;;;;;;-6.09;86.78;101127.56;5091133;28;19935;-71
2022/01/25 13:25:58;;;;;;;;;;;;;;;-6.18;87.31;101117.28;5092565;28;20011;-70
2022/01/25 13:28:38;;;;;;;;;;;;;;;-6.23;87.70;101121.41;5093832;28;20429;-70
2022/01/25 13:31:07;;;;;;;;;;;;;;;-6.21;87.35;101125.66;5091472;28;19931;-70
2022/01/25 13:33:35;;;;;;;;;;;;;;;-6.18;87.31;101127.41;5092751;28;19924;-69
2022/01/25 13:36:02;;;;;;;;;;;;;;;-6.36;87.93;101133.81;5092372;28;19924;-70
2022/01/25 13:38:31;;;;;;;;;;;;;;;-6.24;87.64;101142.47;5091873;28;19963;-70
2022/01/25 13:41:07;;;;;;;;;;;;;;;-6.20;87.95;101145.09;5103410;22;19912;-69
2022/01/25 13:46:17;;;;;;;;;;;;;;;-6.17;87.20;101141.75;5072886;28;19986;-71
2022/01/25 13:48:46;;;;;;;;;;;;;;;-6.20;86.63;101150.16;5088907;28;19924;-65
2022/01/25 13:51:13;;;;;;;;;;;;;;;-6.26;86.64;101150.06;5085843;28;19928;-64
2022/01/25 13:53:41;;;;;;;;;;;;;;;-6.29;86.89;101151.66;5080899;28;19924;-68
2022/01/25 13:56:08;;;;;;;;;;;;;;;-6.34;87.22;101149.06;5088495;28;19931;-63
2022/01/25 13:58:36;;;;;;;;;;;;;;;-6.30;87.28;101149.94;5083594;28;20378;-64
2022/01/25 14:01:04;;;;;;;;;;;;;;;-6.30;87.20;101150.81;5076539;28;19924;-66
2022/01/25 14:03:32;;;;;;;;;;;;;;;-6.31;87.05;101149.09;5090318;28;19931;-63